createdAt,value
2022-09-29T00:00:24.571Z,2.2
2022-09-29T00:05:30.809Z,2.2
2022-09-29T00:10:19.504Z,2.1
2022-09-29T00:15:25.726Z,2.0
2022-09-29T00:20:31.690Z,2.0
2022-09-29T00:25:20.692Z,2.0
2022-09-29T00:30:26.720Z,1.9
2022-09-29T00:35:32.825Z,1.9
2022-09-29T00:40:21.913Z,1.9
2022-09-29T00:45:27.915Z,1.8
2022-09-29T00:50:16.918Z,1.7
2022-09-29T00:55:22.991Z,1.7
2022-09-29T01:00:29.072Z,1.8
2022-09-29T01:05:17.430Z,1.8
2022-09-29T01:10:23.130Z,1.9
2022-09-29T01:15:29.547Z,1.9
2022-09-29T01:20:18.334Z,2.0
2022-09-29T01:25:24.374Z,1.9
2022-09-29T01:30:30.547Z,1.9
2022-09-29T01:35:19.380Z,1.7
2022-09-29T01:40:25.503Z,1.6
2022-09-29T01:45:31.565Z,1.5
2022-09-29T01:50:20.580Z,1.5
2022-09-29T01:55:26.657Z,1.4
2022-09-29T02:00:32.765Z,1.5
2022-09-29T02:05:21.052Z,1.5
2022-09-29T02:10:27.816Z,1.5
2022-09-29T02:15:16.884Z,1.5
2022-09-29T02:20:22.922Z,1.7
2022-09-29T02:25:28.994Z,1.9
2022-09-29T02:30:17.960Z,1.9
2022-09-29T02:35:24.084Z,1.7
2022-09-29T02:40:30.278Z,1.7
2022-09-29T02:45:19.377Z,1.6
2022-09-29T02:50:25.219Z,1.6
2022-09-29T02:55:31.296Z,1.6
2022-09-29T03:00:20.340Z,1.7
2022-09-29T03:05:25.669Z,1.8
2022-09-29T03:10:31.543Z,1.8
2022-09-29T03:15:20.581Z,1.9
2022-09-29T03:20:26.778Z,2.0
2022-09-29T03:25:32.632Z,2.1
2022-09-29T03:30:21.692Z,2.1
2022-09-29T03:35:27.951Z,2.1
2022-09-29T03:40:17.022Z,2.2
2022-09-29T03:45:22.951Z,2.5
2022-09-29T03:50:28.940Z,2.6
2022-09-29T03:55:18.087Z,2.7
2022-09-29T04:00:24.026Z,2.8
2022-09-29T04:05:29.398Z,2.8
2022-09-29T04:10:18.078Z,2.8
2022-09-29T04:15:24.064Z,2.8
2022-09-29T04:20:30.348Z,2.9
2022-09-29T04:25:19.182Z,3.3
2022-09-29T04:30:25.272Z,3.5
2022-09-29T04:35:36.680Z,3.9
2022-09-29T04:40:20.663Z,3.8
2022-09-29T04:45:26.483Z,3.6
2022-09-29T04:50:32.494Z,3.5
2022-09-29T04:55:21.508Z,3.5
2022-09-29T05:00:27.576Z,3.6
2022-09-29T05:05:15.945Z,3.5
2022-09-29T05:10:22.739Z,3.6
2022-09-29T05:15:28.766Z,3.6
2022-09-29T05:20:17.736Z,3.6
2022-09-29T05:25:24.044Z,3.8
2022-09-29T05:30:29.905Z,3.7
2022-09-29T05:35:18.927Z,3.6
2022-09-29T05:40:25.126Z,3.7
2022-09-29T05:45:31.075Z,4.2
2022-09-29T05:50:20.110Z,4.4
2022-09-29T05:55:26.161Z,4.2
2022-09-29T06:00:32.414Z,4.3
2022-09-29T06:05:20.592Z,4.4
2022-09-29T06:10:26.410Z,4.6
2022-09-29T06:15:16.223Z,4.5
2022-09-29T06:20:21.483Z,4.6
2022-09-29T06:25:27.744Z,4.8
2022-09-29T06:30:16.560Z,5.0
2022-09-29T06:35:22.664Z,5.2
2022-09-29T06:40:28.921Z,5.2
2022-09-29T06:45:21.936Z,5.3
2022-09-29T06:50:23.838Z,5.4
2022-09-29T06:55:29.898Z,5.3
2022-09-29T07:00:18.887Z,5.4
2022-09-29T07:05:24.317Z,5.5
2022-09-29T07:10:30.035Z,5.4
2022-09-29T07:15:19.066Z,5.5
2022-09-29T07:20:25.079Z,5.5
2022-09-29T07:25:51.133Z,5.7
2022-09-29T07:30:21.658Z,5.8
2022-09-29T07:35:26.222Z,5.9
2022-09-29T07:40:32.538Z,5.9
2022-09-29T07:45:21.365Z,5.9
2022-09-29T07:50:27.416Z,6.0
2022-09-29T07:55:16.444Z,6.1
2022-09-29T08:00:22.535Z,6.0
2022-09-29T08:05:27.868Z,6.0
2022-09-29T08:10:20.361Z,6.1
2022-09-29T08:15:23.652Z,6.3
2022-09-29T08:20:29.766Z,6.5
2022-09-29T08:25:18.751Z,6.4
2022-09-29T08:30:25.182Z,6.4
2022-09-29T08:35:30.962Z,6.5
2022-09-29T08:40:20.119Z,6.7
2022-09-29T08:45:26.023Z,6.8
2022-09-29T08:50:32.035Z,6.5
2022-09-29T08:55:22.251Z,6.8
2022-09-29T09:00:27.185Z,7.0
2022-09-29T09:05:32.491Z,7.1
2022-09-29T09:10:21.206Z,7.4
2022-09-29T09:15:27.296Z,7.5
2022-09-29T09:20:16.462Z,7.6
2022-09-29T09:30:28.737Z,7.7
2022-09-29T09:35:23.460Z,7.5
2022-09-29T09:40:23.585Z,7.7
2022-09-29T09:45:29.818Z,7.8
2022-09-29T09:50:18.665Z,8.0
2022-09-29T09:55:24.767Z,8.0
2022-09-29T10:00:30.913Z,8.0
2022-09-29T10:05:19.174Z,8.1
2022-09-29T10:15:30.924Z,7.9
2022-09-29T10:20:20.006Z,8.4
2022-09-29T10:25:26.093Z,8.5
2022-09-29T10:30:32.619Z,8.7
2022-09-29T10:35:21.279Z,8.5
2022-09-29T10:40:27.299Z,8.5
2022-09-29T10:45:16.263Z,8.9
2022-09-29T10:50:22.350Z,9.1
2022-09-29T10:55:28.369Z,9.2
2022-09-29T11:00:17.462Z,9.1
2022-09-29T11:05:23.691Z,9.5
2022-09-29T11:10:29.679Z,9.5
2022-09-29T11:15:19.655Z,9.5
2022-09-29T11:20:24.722Z,9.6
2022-09-29T11:25:30.846Z,9.7
2022-09-29T11:30:19.922Z,10.0
2022-09-29T11:35:26.167Z,10.0
2022-09-29T11:40:32.030Z,9.8
2022-09-29T11:45:21.000Z,9.8
2022-09-29T11:50:27.120Z,10.1
2022-09-29T11:55:33.097Z,10.1
2022-09-29T12:00:22.177Z,10.3
2022-09-29T12:05:27.432Z,10.6
2022-09-29T12:10:16.227Z,10.5
2022-09-29T12:15:22.310Z,10.5
2022-09-29T12:20:28.342Z,10.6
2022-09-29T12:25:20.418Z,10.7
2022-09-29T12:30:23.571Z,11.0
2022-09-29T12:35:30.676Z,11.1
2022-09-29T12:40:21.334Z,11.2
2022-09-29T12:45:24.710Z,11.5
2022-09-29T12:50:30.841Z,11.4
2022-09-29T12:55:19.713Z,11.7
2022-09-29T13:00:25.817Z,11.8
2022-09-29T13:05:31.196Z,11.9
2022-09-29T13:10:19.835Z,12.1
2022-09-29T13:15:25.922Z,12.2
2022-09-29T13:20:31.941Z,12.2
2022-09-29T13:25:20.993Z,12.2
2022-09-29T13:30:27.189Z,12.3
2022-09-29T13:35:16.165Z,12.2
2022-09-29T13:40:22.188Z,12.2
2022-09-29T13:45:31.645Z,12.5
2022-09-29T13:50:17.254Z,12.4
2022-09-29T13:55:23.524Z,12.6
2022-09-29T14:00:29.468Z,12.4
2022-09-29T14:05:18.771Z,12.2
2022-09-29T14:10:24.232Z,12.0
2022-09-29T14:15:30.099Z,12.0
2022-09-29T14:20:19.178Z,12.2
2022-09-29T14:25:25.210Z,12.1
2022-09-29T14:30:31.464Z,12.2
2022-09-29T14:35:20.304Z,12.2
2022-09-29T14:40:26.781Z,12.1
2022-09-29T14:45:32.545Z,12.1
2022-09-29T14:50:21.522Z,12.1
2022-09-29T14:55:27.593Z,12.0
2022-09-29T15:00:16.684Z,12.0
2022-09-29T15:05:21.945Z,12.0
2022-09-29T15:10:28.721Z,12.0
2022-09-29T15:15:17.810Z,12.0
2022-09-29T15:20:26.460Z,12.0
2022-09-29T15:25:30.194Z,12.0
2022-09-29T15:30:18.973Z,12.0
2022-09-29T15:35:25.048Z,12.1
2022-09-29T15:40:31.379Z,12.0
2022-09-29T15:45:20.198Z,11.9
2022-09-29T15:50:26.201Z,11.8
2022-09-29T15:55:32.279Z,11.7
2022-09-29T16:00:21.360Z,11.6
2022-09-29T16:05:26.637Z,11.3
2022-09-29T16:10:32.396Z,11.2
2022-09-29T16:15:21.413Z,11.0
2022-09-29T16:20:27.536Z,10.9
2022-09-29T16:25:16.521Z,10.9
2022-09-29T16:30:22.637Z,10.8
2022-09-29T16:35:28.724Z,10.7
2022-09-29T16:40:17.866Z,10.5
2022-09-29T16:45:23.799Z,10.5
2022-09-29T16:50:29.936Z,10.3
2022-09-29T16:55:18.914Z,10.1
2022-09-29T17:00:25.073Z,10.0
2022-09-29T17:05:30.258Z,10.0
2022-09-29T17:10:19.074Z,10.1
2022-09-29T17:15:25.117Z,10.1
2022-09-29T17:20:31.190Z,10.2
2022-09-29T17:25:20.338Z,10.2
2022-09-29T17:30:26.293Z,10.2
2022-09-29T17:35:32.391Z,10.1
2022-09-29T17:40:21.433Z,10.0
2022-09-29T17:45:27.665Z,9.9
2022-09-29T17:50:16.514Z,9.9
2022-09-29T17:55:22.557Z,9.9
2022-09-29T18:00:28.813Z,9.8
2022-09-29T18:05:16.952Z,9.7
2022-09-29T18:10:22.759Z,9.5
2022-09-29T18:15:28.929Z,9.4
2022-09-29T18:20:17.944Z,9.3
2022-09-29T18:25:24.145Z,9.2
2022-09-29T18:30:30.050Z,9.1
2022-09-29T18:35:19.091Z,9.1
2022-09-29T18:40:25.122Z,9.2
2022-09-29T18:45:31.517Z,9.0
2022-09-29T18:50:20.308Z,9.2
2022-09-29T18:55:26.401Z,9.2
2022-09-29T19:00:32.578Z,9.3
2022-09-29T19:05:21.787Z,9.2
2022-09-29T19:10:27.553Z,9.2
2022-09-29T19:15:16.594Z,9.1
2022-09-29T19:20:22.768Z,9.0
2022-09-29T19:25:28.761Z,9.0
2022-09-29T19:30:18.846Z,8.9
2022-09-29T19:35:23.900Z,8.9
2022-09-29T19:40:29.981Z,8.8
2022-09-29T19:45:19.043Z,8.7
2022-09-29T19:50:26.065Z,8.7
2022-09-29T19:55:31.346Z,8.7
2022-09-29T20:00:20.170Z,8.8
2022-09-29T20:05:25.796Z,8.8
2022-09-29T20:10:31.439Z,8.9
2022-09-29T20:15:20.488Z,8.8
2022-09-29T20:20:26.540Z,8.8
2022-09-29T20:25:32.624Z,8.7
2022-09-29T20:30:21.601Z,8.7
2022-09-29T20:35:27.644Z,8.7
2022-09-29T20:40:16.783Z,8.8
2022-09-29T20:45:23.268Z,8.9
2022-09-29T20:50:29.119Z,8.8
2022-09-29T20:55:17.822Z,8.8
2022-09-29T21:00:23.916Z,8.8
2022-09-29T21:05:29.392Z,8.7
2022-09-29T21:10:18.022Z,8.6
2022-09-29T21:15:24.054Z,8.5
2022-09-29T21:20:30.160Z,8.4
2022-09-29T21:25:19.153Z,8.4
2022-09-29T21:30:25.293Z,8.3
2022-09-29T21:35:31.291Z,8.2
2022-09-29T21:40:23.390Z,8.2
2022-09-29T21:45:26.442Z,8.2
2022-09-29T21:50:32.597Z,8.2
2022-09-29T21:55:21.490Z,8.1
2022-09-29T22:00:27.694Z,8.1
2022-09-29T22:05:15.917Z,8.1
2022-09-29T22:10:22.813Z,8.1
2022-09-29T22:15:28.821Z,8.1
2022-09-29T22:20:17.847Z,8.0
2022-09-29T22:25:23.838Z,8.0
2022-09-29T22:30:29.941Z,7.9
2022-09-29T22:35:19.270Z,7.9
2022-09-29T22:40:25.843Z,7.9
2022-09-29T22:45:31.060Z,7.9
2022-09-29T22:50:20.112Z,7.8
2022-09-29T22:55:26.366Z,7.8
2022-09-29T23:00:32.300Z,7.8
2022-09-29T23:05:20.480Z,7.8
2022-09-29T23:10:26.255Z,7.8
2022-09-29T23:15:32.321Z,7.7
2022-09-29T23:20:21.359Z,7.7
2022-09-29T23:25:27.515Z,7.8
2022-09-29T23:30:16.451Z,7.8
2022-09-29T23:35:22.502Z,7.8
2022-09-29T23:40:28.657Z,7.8
2022-09-29T23:45:17.703Z,7.7
2022-09-29T23:50:23.688Z,7.7
2022-09-29T23:55:30.414Z,7.7
